X  Blizu METAR Podaci o vazduhoplovstvu     LGEL Elefsis Airport
Temperatura
77°F Temperatura
57°F Tačka Rose
51% Vlaga



Vetar
0 MPS
0 KM/S
0 M/S
0 Čvorovi



Tiho
S
Trenutna situacija

Vedro Vedro
Vazdušni pritisak 1010.84 (hPa) - 29.85 (inHg)
Vidljivost 6 (Milje) - 9.7 (km)
Aerodrom
Aerodromski kod. LGEL

Lokacija: Elefsis Airport
Udaljenost: 77 (mi)

Metar:
LGEL 152050Z 00000KT CAVOK 25/14 Q1011

Vreme: 15-06-2024 23:50 EEST